sensor_id;sensor_type;location;lat;lon;timestamp;P1;durP1;ratioP1;P2;durP2;ratioP2
69951;SDS011;60406;48.408;13.392;2023-07-28T00:04:27;4.03;;;3.33;;
69951;SDS011;60406;48.408;13.392;2023-07-28T00:09:28;3.88;;;3.47;;
69951;SDS011;60406;48.408;13.392;2023-07-28T00:14:28;4.85;;;3.72;;
69951;SDS011;60406;48.408;13.392;2023-07-28T00:19:29;6.57;;;3.75;;
69951;SDS011;60406;48.408;13.392;2023-07-28T00:24:30;5.00;;;3.72;;
69951;SDS011;60406;48.408;13.392;2023-07-28T00:29:31;3.88;;;3.35;;
69951;SDS011;60406;48.408;13.392;2023-07-28T00:34:32;5.20;;;3.42;;
69951;SDS011;60406;48.408;13.392;2023-07-28T00:39:33;11.65;;;3.92;;
69951;SDS011;60406;48.408;13.392;2023-07-28T00:44:34;6.95;;;3.50;;
69951;SDS011;60406;48.408;13.392;2023-07-28T00:49:34;5.47;;;3.72;;
69951;SDS011;60406;48.408;13.392;2023-07-28T00:54:35;3.42;;;3.13;;
69951;SDS011;60406;48.408;13.392;2023-07-28T00:59:36;5.43;;;4.00;;
69951;SDS011;60406;48.408;13.392;2023-07-28T01:04:37;4.82;;;3.75;;
69951;SDS011;60406;48.408;13.392;2023-07-28T01:09:43;6.00;;;4.05;;
69951;SDS011;60406;48.408;13.392;2023-07-28T01:14:47;5.15;;;4.55;;
69951;SDS011;60406;48.408;13.392;2023-07-28T01:19:48;4.50;;;3.95;;
69951;SDS011;60406;48.408;13.392;2023-07-28T01:24:55;4.72;;;3.58;;
69951;SDS011;60406;48.408;13.392;2023-07-28T01:30:28;5.78;;;4.35;;
69951;SDS011;60406;48.408;13.392;2023-07-28T01:35:29;5.45;;;4.07;;
69951;SDS011;60406;48.408;13.392;2023-07-28T01:40:30;4.82;;;4.10;;
69951;SDS011;60406;48.408;13.392;2023-07-28T01:45:31;5.90;;;4.63;;
69951;SDS011;60406;48.408;13.392;2023-07-28T01:50:32;4.93;;;4.15;;
69951;SDS011;60406;48.408;13.392;2023-07-28T01:55:33;6.13;;;4.68;;
69951;SDS011;60406;48.408;13.392;2023-07-28T02:00:34;4.95;;;4.40;;
69951;SDS011;60406;48.408;13.392;2023-07-28T02:05:34;5.13;;;4.43;;
69951;SDS011;60406;48.408;13.392;2023-07-28T02:10:35;9.05;;;4.60;;
69951;SDS011;60406;48.408;13.392;2023-07-28T02:15:36;4.95;;;4.00;;
69951;SDS011;60406;48.408;13.392;2023-07-28T02:20:37;5.43;;;4.35;;
69951;SDS011;60406;48.408;13.392;2023-07-28T02:25:38;4.93;;;4.35;;
69951;SDS011;60406;48.408;13.392;2023-07-28T02:30:39;7.03;;;4.28;;
69951;SDS011;60406;48.408;13.392;2023-07-28T02:35:40;7.05;;;4.15;;
69951;SDS011;60406;48.408;13.392;2023-07-28T02:40:40;6.93;;;4.70;;
69951;SDS011;60406;48.408;13.392;2023-07-28T02:45:43;7.10;;;5.53;;
69951;SDS011;60406;48.408;13.392;2023-07-28T02:50:47;8.90;;;5.22;;
69951;SDS011;60406;48.408;13.392;2023-07-28T02:55:48;7.97;;;5.07;;
69951;SDS011;60406;48.408;13.392;2023-07-28T03:00:51;8.90;;;6.40;;
69951;SDS011;60406;48.408;13.392;2023-07-28T03:05:52;10.13;;;5.13;;
69951;SDS011;60406;48.408;13.392;2023-07-28T03:10:59;6.85;;;5.32;;
69951;SDS011;60406;48.408;13.392;2023-07-28T03:16:00;9.30;;;6.15;;
69951;SDS011;60406;48.408;13.392;2023-07-28T03:21:01;8.38;;;5.80;;
69951;SDS011;60406;48.408;13.392;2023-07-28T03:26:02;8.38;;;5.50;;
69951;SDS011;60406;48.408;13.392;2023-07-28T03:31:03;5.28;;;4.78;;
69951;SDS011;60406;48.408;13.392;2023-07-28T03:36:04;7.05;;;4.82;;
69951;SDS011;60406;48.408;13.392;2023-07-28T03:41:05;5.95;;;4.97;;
69951;SDS011;60406;48.408;13.392;2023-07-28T03:46:06;7.00;;;4.78;;
69951;SDS011;60406;48.408;13.392;2023-07-28T03:51:07;6.05;;;4.85;;
69951;SDS011;60406;48.408;13.392;2023-07-28T03:56:07;6.57;;;5.07;;
69951;SDS011;60406;48.408;13.392;2023-07-28T04:01:08;6.07;;;4.97;;
69951;SDS011;60406;48.408;13.392;2023-07-28T04:06:10;5.40;;;4.65;;
69951;SDS011;60406;48.408;13.392;2023-07-28T04:11:11;8.65;;;4.75;;
69951;SDS011;60406;48.408;13.392;2023-07-28T04:16:12;6.45;;;4.70;;
69951;SDS011;60406;48.408;13.392;2023-07-28T04:21:13;13.00;;;4.65;;
69951;SDS011;60406;48.408;13.392;2023-07-28T04:26:14;14.02;;;6.97;;
69951;SDS011;60406;48.408;13.392;2023-07-28T04:31:15;13.68;;;8.63;;
69951;SDS011;60406;48.408;13.392;2023-07-28T04:36:15;17.70;;;8.07;;
69951;SDS011;60406;48.408;13.392;2023-07-28T04:41:16;8.25;;;6.32;;
69951;SDS011;60406;48.408;13.392;2023-07-28T04:46:17;7.68;;;5.55;;
69951;SDS011;60406;48.408;13.392;2023-07-28T04:51:18;5.57;;;4.97;;
69951;SDS011;60406;48.408;13.392;2023-07-28T04:56:19;6.53;;;4.50;;
69951;SDS011;60406;48.408;13.392;2023-07-28T05:01:20;10.07;;;5.80;;
69951;SDS011;60406;48.408;13.392;2023-07-28T05:06:21;9.43;;;5.95;;
69951;SDS011;60406;48.408;13.392;2023-07-28T05:11:21;7.53;;;5.50;;
69951;SDS011;60406;48.408;13.392;2023-07-28T05:16:22;5.63;;;4.70;;
69951;SDS011;60406;48.408;13.392;2023-07-28T05:21:23;9.18;;;4.55;;
69951;SDS011;60406;48.408;13.392;2023-07-28T05:26:24;6.13;;;3.95;;
69951;SDS011;60406;48.408;13.392;2023-07-28T05:31:25;9.45;;;4.88;;
69951;SDS011;60406;48.408;13.392;2023-07-28T05:36:26;7.13;;;4.43;;
69951;SDS011;60406;48.408;13.392;2023-07-28T05:41:27;6.85;;;5.15;;
69951;SDS011;60406;48.408;13.392;2023-07-28T05:46:27;6.85;;;5.20;;
69951;SDS011;60406;48.408;13.392;2023-07-28T05:51:28;6.55;;;4.90;;
69951;SDS011;60406;48.408;13.392;2023-07-28T05:56:29;6.75;;;4.53;;
69951;SDS011;60406;48.408;13.392;2023-07-28T06:01:30;5.55;;;4.40;;
69951;SDS011;60406;48.408;13.392;2023-07-28T06:06:31;6.03;;;4.22;;
69951;SDS011;60406;48.408;13.392;2023-07-28T06:11:32;6.65;;;4.70;;
69951;SDS011;60406;48.408;13.392;2023-07-28T06:16:33;6.38;;;4.70;;
69951;SDS011;60406;48.408;13.392;2023-07-28T06:21:33;5.03;;;3.83;;
69951;SDS011;60406;48.408;13.392;2023-07-28T06:26:34;5.40;;;4.13;;
69951;SDS011;60406;48.408;13.392;2023-07-28T06:31:35;5.70;;;4.05;;
69951;SDS011;60406;48.408;13.392;2023-07-28T06:36:36;5.70;;;4.85;;
69951;SDS011;60406;48.408;13.392;2023-07-28T06:41:37;6.80;;;4.30;;
69951;SDS011;60406;48.408;13.392;2023-07-28T06:46:38;6.70;;;4.00;;
69951;SDS011;60406;48.408;13.392;2023-07-28T06:51:48;5.22;;;3.42;;
69951;SDS011;60406;48.408;13.392;2023-07-28T06:56:49;4.40;;;3.42;;
69951;SDS011;60406;48.408;13.392;2023-07-28T07:01:50;5.13;;;3.47;;
69951;SDS011;60406;48.408;13.392;2023-07-28T07:06:51;4.95;;;3.47;;
69951;SDS011;60406;48.408;13.392;2023-07-28T07:11:52;5.07;;;3.63;;
69951;SDS011;60406;48.408;13.392;2023-07-28T07:16:53;3.95;;;3.25;;
69951;SDS011;60406;48.408;13.392;2023-07-28T07:21:54;6.75;;;3.70;;
69951;SDS011;60406;48.408;13.392;2023-07-28T07:26:55;4.00;;;3.00;;
69951;SDS011;60406;48.408;13.392;2023-07-28T07:31:56;4.97;;;3.00;;
69951;SDS011;60406;48.408;13.392;2023-07-28T07:36:56;4.63;;;3.60;;
69951;SDS011;60406;48.408;13.392;2023-07-28T07:41:57;4.10;;;3.22;;
69951;SDS011;60406;48.408;13.392;2023-07-28T07:47:01;4.57;;;3.03;;
69951;SDS011;60406;48.408;13.392;2023-07-28T07:57:13;4.72;;;3.55;;
69951;SDS011;60406;48.408;13.392;2023-07-28T08:02:13;5.38;;;3.00;;
69951;SDS011;60406;48.408;13.392;2023-07-28T08:07:15;5.57;;;3.53;;
69951;SDS011;60406;48.408;13.392;2023-07-28T08:12:16;5.50;;;3.20;;
69951;SDS011;60406;48.408;13.392;2023-07-28T08:17:17;5.68;;;3.50;;
69951;SDS011;60406;48.408;13.392;2023-07-28T08:22:17;5.85;;;3.78;;
69951;SDS011;60406;48.408;13.392;2023-07-28T08:27:18;3.00;;;2.50;;
69951;SDS011;60406;48.408;13.392;2023-07-28T08:32:19;4.68;;;2.47;;
69951;SDS011;60406;48.408;13.392;2023-07-28T08:37:20;8.32;;;3.38;;
69951;SDS011;60406;48.408;13.392;2023-07-28T08:42:21;7.07;;;3.65;;
69951;SDS011;60406;48.408;13.392;2023-07-28T08:47:22;5.95;;;4.07;;
69951;SDS011;60406;48.408;13.392;2023-07-28T08:52:23;5.13;;;3.55;;
69951;SDS011;60406;48.408;13.392;2023-07-28T08:57:24;9.25;;;4.38;;
69951;SDS011;60406;48.408;13.392;2023-07-28T09:02:24;4.57;;;3.20;;
69951;SDS011;60406;48.408;13.392;2023-07-28T09:07:25;5.03;;;3.90;;
69951;SDS011;60406;48.408;13.392;2023-07-28T09:12:26;3.33;;;2.75;;
69951;SDS011;60406;48.408;13.392;2023-07-28T09:17:27;4.65;;;3.00;;
69951;SDS011;60406;48.408;13.392;2023-07-28T09:22:32;6.18;;;3.53;;
69951;SDS011;60406;48.408;13.392;2023-07-28T09:27:33;4.32;;;3.10;;
69951;SDS011;60406;48.408;13.392;2023-07-28T09:32:34;4.03;;;3.03;;
69951;SDS011;60406;48.408;13.392;2023-07-28T09:37:36;4.72;;;3.72;;
69951;SDS011;60406;48.408;13.392;2023-07-28T09:42:41;6.95;;;4.30;;
69951;SDS011;60406;48.408;13.392;2023-07-28T09:47:44;4.28;;;2.92;;
69951;SDS011;60406;48.408;13.392;2023-07-28T09:52:46;8.73;;;3.03;;
69951;SDS011;60406;48.408;13.392;2023-07-28T09:57:51;4.63;;;3.13;;
69951;SDS011;60406;48.408;13.392;2023-07-28T10:02:53;5.22;;;3.28;;
69951;SDS011;60406;48.408;13.392;2023-07-28T10:07:54;5.80;;;3.13;;
69951;SDS011;60406;48.408;13.392;2023-07-28T10:12:55;3.35;;;2.67;;
69951;SDS011;60406;48.408;13.392;2023-07-28T10:17:58;2.55;;;2.22;;
69951;SDS011;60406;48.408;13.392;2023-07-28T10:28:06;3.67;;;2.70;;
69951;SDS011;60406;48.408;13.392;2023-07-28T10:33:08;7.90;;;3.03;;
69951;SDS011;60406;48.408;13.392;2023-07-28T10:38:33;5.85;;;2.60;;
69951;SDS011;60406;48.408;13.392;2023-07-28T10:43:35;4.35;;;2.65;;
69951;SDS011;60406;48.408;13.392;2023-07-28T10:48:36;3.38;;;2.85;;
69951;SDS011;60406;48.408;13.392;2023-07-28T10:53:38;3.28;;;2.95;;
69951;SDS011;60406;48.408;13.392;2023-07-28T10:58:39;5.03;;;2.95;;
69951;SDS011;60406;48.408;13.392;2023-07-28T11:03:39;3.42;;;2.83;;
69951;SDS011;60406;48.408;13.392;2023-07-28T11:08:40;3.22;;;2.83;;
69951;SDS011;60406;48.408;13.392;2023-07-28T11:13:41;5.97;;;3.15;;
69951;SDS011;60406;48.408;13.392;2023-07-28T11:18:42;3.38;;;3.08;;
69951;SDS011;60406;48.408;13.392;2023-07-28T11:23:46;3.25;;;2.95;;
69951;SDS011;60406;48.408;13.392;2023-07-28T11:28:47;3.22;;;2.92;;
69951;SDS011;60406;48.408;13.392;2023-07-28T11:33:48;3.10;;;2.80;;
69951;SDS011;60406;48.408;13.392;2023-07-28T11:38:49;3.30;;;3.00;;
69951;SDS011;60406;48.408;13.392;2023-07-28T11:43:50;4.38;;;3.10;;
69951;SDS011;60406;48.408;13.392;2023-07-28T11:48:51;4.15;;;3.30;;
69951;SDS011;60406;48.408;13.392;2023-07-28T11:53:52;5.22;;;3.67;;
69951;SDS011;60406;48.408;13.392;2023-07-28T11:58:53;3.88;;;3.38;;
69951;SDS011;60406;48.408;13.392;2023-07-28T12:03:53;3.70;;;3.40;;
69951;SDS011;60406;48.408;13.392;2023-07-28T12:09:03;4.05;;;3.08;;
69951;SDS011;60406;48.408;13.392;2023-07-28T12:14:05;4.72;;;3.58;;
69951;SDS011;60406;48.408;13.392;2023-07-28T12:19:06;7.65;;;4.03;;
69951;SDS011;60406;48.408;13.392;2023-07-28T12:24:07;4.28;;;3.13;;
69951;SDS011;60406;48.408;13.392;2023-07-28T12:29:07;5.20;;;3.70;;
69951;SDS011;60406;48.408;13.392;2023-07-28T12:34:08;4.70;;;3.80;;
69951;SDS011;60406;48.408;13.392;2023-07-28T12:39:09;4.63;;;4.03;;
69951;SDS011;60406;48.408;13.392;2023-07-28T12:44:10;5.32;;;4.30;;
69951;SDS011;60406;48.408;13.392;2023-07-28T12:49:11;7.28;;;4.18;;
69951;SDS011;60406;48.408;13.392;2023-07-28T12:54:12;7.47;;;4.72;;
69951;SDS011;60406;48.408;13.392;2023-07-28T12:59:13;9.95;;;6.18;;
69951;SDS011;60406;48.408;13.392;2023-07-28T13:04:14;6.55;;;5.78;;
69951;SDS011;60406;48.408;13.392;2023-07-28T13:09:14;8.15;;;6.28;;
69951;SDS011;60406;48.408;13.392;2023-07-28T13:14:15;7.25;;;5.60;;
69951;SDS011;60406;48.408;13.392;2023-07-28T13:19:16;6.72;;;5.85;;
69951;SDS011;60406;48.408;13.392;2023-07-28T13:24:17;5.68;;;4.63;;
69951;SDS011;60406;48.408;13.392;2023-07-28T13:29:18;7.00;;;4.20;;
69951;SDS011;60406;48.408;13.392;2023-07-28T13:34:19;5.30;;;4.32;;
69951;SDS011;60406;48.408;13.392;2023-07-28T13:39:20;5.57;;;4.80;;
69951;SDS011;60406;48.408;13.392;2023-07-28T13:44:21;6.40;;;5.22;;
69951;SDS011;60406;48.408;13.392;2023-07-28T13:49:21;6.13;;;4.60;;
69951;SDS011;60406;48.408;13.392;2023-07-28T13:54:22;5.88;;;4.60;;
69951;SDS011;60406;48.408;13.392;2023-07-28T13:59:23;5.40;;;4.65;;
69951;SDS011;60406;48.408;13.392;2023-07-28T14:04:24;5.72;;;4.35;;
69951;SDS011;60406;48.408;13.392;2023-07-28T14:09:25;4.82;;;3.97;;
69951;SDS011;60406;48.408;13.392;2023-07-28T14:14:26;5.72;;;4.57;;
69951;SDS011;60406;48.408;13.392;2023-07-28T14:19:27;4.72;;;4.22;;
69951;SDS011;60406;48.408;13.392;2023-07-28T14:24:27;4.97;;;4.03;;
69951;SDS011;60406;48.408;13.392;2023-07-28T14:29:28;7.65;;;4.43;;
69951;SDS011;60406;48.408;13.392;2023-07-28T14:34:29;5.88;;;5.10;;
69951;SDS011;60406;48.408;13.392;2023-07-28T14:39:30;5.50;;;4.28;;
69951;SDS011;60406;48.408;13.392;2023-07-28T14:44:31;5.30;;;4.05;;
69951;SDS011;60406;48.408;13.392;2023-07-28T14:49:32;5.70;;;4.30;;
69951;SDS011;60406;48.408;13.392;2023-07-28T14:54:32;5.28;;;4.35;;
69951;SDS011;60406;48.408;13.392;2023-07-28T14:59:33;5.47;;;4.63;;
69951;SDS011;60406;48.408;13.392;2023-07-28T15:04:34;8.32;;;4.22;;
69951;SDS011;60406;48.408;13.392;2023-07-28T15:09:35;4.82;;;4.28;;
69951;SDS011;60406;48.408;13.392;2023-07-28T15:14:36;6.93;;;5.15;;
69951;SDS011;60406;48.408;13.392;2023-07-28T15:19:37;6.03;;;5.10;;
69951;SDS011;60406;48.408;13.392;2023-07-28T15:24:38;5.72;;;4.28;;
69951;SDS011;60406;48.408;13.392;2023-07-28T15:29:38;5.07;;;3.95;;
69951;SDS011;60406;48.408;13.392;2023-07-28T15:34:39;6.07;;;4.40;;
69951;SDS011;60406;48.408;13.392;2023-07-28T15:39:40;6.07;;;4.70;;
69951;SDS011;60406;48.408;13.392;2023-07-28T15:44:41;4.63;;;4.13;;
69951;SDS011;60406;48.408;13.392;2023-07-28T15:49:42;4.53;;;3.55;;
69951;SDS011;60406;48.408;13.392;2023-07-28T15:54:43;5.82;;;3.92;;
69951;SDS011;60406;48.408;13.392;2023-07-28T15:59:47;4.47;;;3.65;;
69951;SDS011;60406;48.408;13.392;2023-07-28T16:04:48;4.40;;;3.90;;
69951;SDS011;60406;48.408;13.392;2023-07-28T16:09:49;5.13;;;3.80;;
69951;SDS011;60406;48.408;13.392;2023-07-28T16:14:49;4.45;;;4.00;;
69951;SDS011;60406;48.408;13.392;2023-07-28T16:19:50;6.93;;;4.60;;
69951;SDS011;60406;48.408;13.392;2023-07-28T16:24:51;6.38;;;5.03;;
69951;SDS011;60406;48.408;13.392;2023-07-28T16:29:52;6.85;;;5.38;;
69951;SDS011;60406;48.408;13.392;2023-07-28T16:34:53;6.38;;;5.20;;
69951;SDS011;60406;48.408;13.392;2023-07-28T16:39:54;12.25;;;8.18;;
69951;SDS011;60406;48.408;13.392;2023-07-28T16:44:55;6.05;;;5.45;;
69951;SDS011;60406;48.408;13.392;2023-07-28T16:49:56;7.45;;;5.28;;
69951;SDS011;60406;48.408;13.392;2023-07-28T16:54:57;5.88;;;4.65;;
69951;SDS011;60406;48.408;13.392;2023-07-28T16:59:58;5.65;;;4.50;;
69951;SDS011;60406;48.408;13.392;2023-07-28T17:04:59;6.57;;;4.55;;
69951;SDS011;60406;48.408;13.392;2023-07-28T17:09:59;5.53;;;3.92;;
69951;SDS011;60406;48.408;13.392;2023-07-28T17:15:00;6.10;;;4.10;;
69951;SDS011;60406;48.408;13.392;2023-07-28T17:20:01;5.15;;;4.65;;
69951;SDS011;60406;48.408;13.392;2023-07-28T17:25:02;5.05;;;4.05;;
69951;SDS011;60406;48.408;13.392;2023-07-28T17:30:04;4.50;;;4.10;;
69951;SDS011;60406;48.408;13.392;2023-07-28T17:35:05;6.35;;;4.72;;
69951;SDS011;60406;48.408;13.392;2023-07-28T17:40:06;7.28;;;4.47;;
69951;SDS011;60406;48.408;13.392;2023-07-28T17:45:08;7.28;;;5.05;;
69951;SDS011;60406;48.408;13.392;2023-07-28T17:50:10;4.68;;;3.92;;
69951;SDS011;60406;48.408;13.392;2023-07-28T17:55:11;10.23;;;5.10;;
69951;SDS011;60406;48.408;13.392;2023-07-28T18:00:12;5.85;;;4.60;;
69951;SDS011;60406;48.408;13.392;2023-07-28T18:05:13;6.63;;;4.63;;
69951;SDS011;60406;48.408;13.392;2023-07-28T18:10:14;6.10;;;5.50;;
69951;SDS011;60406;48.408;13.392;2023-07-28T18:15:14;7.75;;;6.93;;
69951;SDS011;60406;48.408;13.392;2023-07-28T18:20:15;5.90;;;4.88;;
69951;SDS011;60406;48.408;13.392;2023-07-28T18:25:16;7.05;;;4.45;;
69951;SDS011;60406;48.408;13.392;2023-07-28T18:30:17;6.75;;;5.63;;
69951;SDS011;60406;48.408;13.392;2023-07-28T18:35:18;5.55;;;4.60;;
69951;SDS011;60406;48.408;13.392;2023-07-28T18:40:19;4.72;;;4.22;;
69951;SDS011;60406;48.408;13.392;2023-07-28T18:45:20;4.80;;;4.30;;
69951;SDS011;60406;48.408;13.392;2023-07-28T18:50:20;4.85;;;4.35;;
69951;SDS011;60406;48.408;13.392;2023-07-28T18:55:21;6.07;;;4.82;;
69951;SDS011;60406;48.408;13.392;2023-07-28T19:00:22;8.57;;;5.65;;
69951;SDS011;60406;48.408;13.392;2023-07-28T19:05:23;5.30;;;4.80;;
69951;SDS011;60406;48.408;13.392;2023-07-28T19:10:24;5.72;;;4.82;;
69951;SDS011;60406;48.408;13.392;2023-07-28T19:15:25;7.40;;;5.68;;
69951;SDS011;60406;48.408;13.392;2023-07-28T19:20:26;7.55;;;5.80;;
69951;SDS011;60406;48.408;13.392;2023-07-28T19:25:27;8.23;;;5.43;;
69951;SDS011;60406;48.408;13.392;2023-07-28T19:30:27;8.85;;;5.35;;
69951;SDS011;60406;48.408;13.392;2023-07-28T19:35:28;8.07;;;6.15;;
69951;SDS011;60406;48.408;13.392;2023-07-28T19:40:29;7.63;;;6.30;;
69951;SDS011;60406;48.408;13.392;2023-07-28T19:45:31;8.90;;;6.90;;
69951;SDS011;60406;48.408;13.392;2023-07-28T19:50:32;9.60;;;7.30;;
69951;SDS011;60406;48.408;13.392;2023-07-28T19:55:33;9.45;;;7.10;;
69951;SDS011;60406;48.408;13.392;2023-07-28T20:00:34;15.23;;;7.32;;
69951;SDS011;60406;48.408;13.392;2023-07-28T20:05:35;7.97;;;7.18;;
69951;SDS011;60406;48.408;13.392;2023-07-28T20:10:36;8.48;;;7.50;;
69951;SDS011;60406;48.408;13.392;2023-07-28T20:15:37;7.88;;;7.05;;
69951;SDS011;60406;48.408;13.392;2023-07-28T20:20:37;8.25;;;6.75;;
69951;SDS011;60406;48.408;13.392;2023-07-28T20:25:38;8.38;;;6.55;;
69951;SDS011;60406;48.408;13.392;2023-07-28T20:30:39;8.27;;;6.47;;
69951;SDS011;60406;48.408;13.392;2023-07-28T20:35:40;7.88;;;6.50;;
69951;SDS011;60406;48.408;13.392;2023-07-28T20:40:41;11.13;;;7.18;;
69951;SDS011;60406;48.408;13.392;2023-07-28T20:45:42;9.23;;;6.65;;
69951;SDS011;60406;48.408;13.392;2023-07-28T20:50:43;7.13;;;5.57;;
69951;SDS011;60406;48.408;13.392;2023-07-28T20:55:44;6.50;;;5.28;;
69951;SDS011;60406;48.408;13.392;2023-07-28T21:00:45;8.80;;;7.75;;
69951;SDS011;60406;48.408;13.392;2023-07-28T21:05:46;5.70;;;5.20;;
69951;SDS011;60406;48.408;13.392;2023-07-28T21:10:46;4.95;;;4.45;;
69951;SDS011;60406;48.408;13.392;2023-07-28T21:15:47;7.78;;;4.80;;
69951;SDS011;60406;48.408;13.392;2023-07-28T21:20:48;5.45;;;4.30;;
69951;SDS011;60406;48.408;13.392;2023-07-28T21:25:49;6.45;;;4.68;;
69951;SDS011;60406;48.408;13.392;2023-07-28T21:30:50;7.20;;;4.78;;
69951;SDS011;60406;48.408;13.392;2023-07-28T21:35:51;8.32;;;4.40;;
69951;SDS011;60406;48.408;13.392;2023-07-28T21:40:52;5.28;;;4.70;;
69951;SDS011;60406;48.408;13.392;2023-07-28T21:45:53;5.30;;;4.22;;
69951;SDS011;60406;48.408;13.392;2023-07-28T21:50:54;4.70;;;3.78;;
69951;SDS011;60406;48.408;13.392;2023-07-28T21:55:55;4.97;;;3.65;;
69951;SDS011;60406;48.408;13.392;2023-07-28T22:00:56;3.88;;;3.00;;
69951;SDS011;60406;48.408;13.392;2023-07-28T22:05:57;5.78;;;3.17;;
69951;SDS011;60406;48.408;13.392;2023-07-28T22:10:57;3.17;;;2.63;;
69951;SDS011;60406;48.408;13.392;2023-07-28T22:15:58;3.05;;;2.22;;
69951;SDS011;60406;48.408;13.392;2023-07-28T22:20:59;2.63;;;2.08;;
69951;SDS011;60406;48.408;13.392;2023-07-28T22:26:00;4.97;;;2.35;;
69951;SDS011;60406;48.408;13.392;2023-07-28T22:31:01;2.90;;;2.30;;
69951;SDS011;60406;48.408;13.392;2023-07-28T22:36:02;2.63;;;2.30;;
69951;SDS011;60406;48.408;13.392;2023-07-28T22:41:03;3.08;;;2.17;;
69951;SDS011;60406;48.408;13.392;2023-07-28T22:46:04;3.03;;;2.05;;
69951;SDS011;60406;48.408;13.392;2023-07-28T22:51:05;3.13;;;1.85;;
69951;SDS011;60406;48.408;13.392;2023-07-28T22:56:06;4.65;;;2.08;;
69951;SDS011;60406;48.408;13.392;2023-07-28T23:01:07;2.38;;;1.98;;
69951;SDS011;60406;48.408;13.392;2023-07-28T23:06:08;3.22;;;2.17;;
69951;SDS011;60406;48.408;13.392;2023-07-28T23:11:08;3.03;;;2.03;;
69951;SDS011;60406;48.408;13.392;2023-07-28T23:16:09;1.92;;;1.70;;
69951;SDS011;60406;48.408;13.392;2023-07-28T23:21:10;3.00;;;1.90;;
69951;SDS011;60406;48.408;13.392;2023-07-28T23:26:11;2.80;;;1.80;;
69951;SDS011;60406;48.408;13.392;2023-07-28T23:31:13;3.40;;;2.35;;
69951;SDS011;60406;48.408;13.392;2023-07-28T23:36:14;2.95;;;1.85;;
69951;SDS011;60406;48.408;13.392;2023-07-28T23:41:15;2.20;;;1.80;;
69951;SDS011;60406;48.408;13.392;2023-07-28T23:46:16;3.65;;;1.90;;
69951;SDS011;60406;48.408;13.392;2023-07-28T23:51:17;3.05;;;2.30;;
69951;SDS011;60406;48.408;13.392;2023-07-28T23:56:18;6.05;;;2.25;;
